sensor_id;sensor_type;location;lat;lon;timestamp;P1;durP1;ratioP1;P2;durP2;ratioP2
27758;SDS011;15148;48.972;12.794;2023-05-10T00:02:53;4.97;;;4.47;;
27758;SDS011;15148;48.972;12.794;2023-05-10T00:07:54;5.72;;;4.70;;
27758;SDS011;15148;48.972;12.794;2023-05-10T00:12:56;5.57;;;4.47;;
27758;SDS011;15148;48.972;12.794;2023-05-10T00:17:58;5.32;;;4.50;;
27758;SDS011;15148;48.972;12.794;2023-05-10T00:23:00;4.95;;;4.55;;
27758;SDS011;15148;48.972;12.794;2023-05-10T00:28:02;7.22;;;5.00;;
27758;SDS011;15148;48.972;12.794;2023-05-10T00:33:04;6.68;;;5.05;;
27758;SDS011;15148;48.972;12.794;2023-05-10T00:38:06;5.55;;;5.05;;
27758;SDS011;15148;48.972;12.794;2023-05-10T00:43:07;7.13;;;4.75;;
27758;SDS011;15148;48.972;12.794;2023-05-10T00:48:09;6.35;;;4.90;;
27758;SDS011;15148;48.972;12.794;2023-05-10T00:53:11;5.78;;;4.88;;
27758;SDS011;15148;48.972;12.794;2023-05-10T00:58:14;5.85;;;5.25;;
27758;SDS011;15148;48.972;12.794;2023-05-10T01:03:16;5.10;;;4.60;;
27758;SDS011;15148;48.972;12.794;2023-05-10T01:08:18;7.85;;;5.00;;
27758;SDS011;15148;48.972;12.794;2023-05-10T01:13:29;5.82;;;5.10;;
27758;SDS011;15148;48.972;12.794;2023-05-10T01:18:38;4.78;;;4.28;;
27758;SDS011;15148;48.972;12.794;2023-05-10T01:34:34;8.13;;;5.30;;
27758;SDS011;15148;48.972;12.794;2023-05-10T01:39:47;5.57;;;5.07;;
27758;SDS011;15148;48.972;12.794;2023-05-10T01:55:04;5.20;;;4.68;;
27758;SDS011;15148;48.972;12.794;2023-05-10T02:00:09;6.65;;;4.82;;
27758;SDS011;15148;48.972;12.794;2023-05-10T02:05:15;5.50;;;4.90;;
27758;SDS011;15148;48.972;12.794;2023-05-10T02:10:18;8.02;;;5.35;;
27758;SDS011;15148;48.972;12.794;2023-05-10T02:15:22;5.65;;;5.13;;
27758;SDS011;15148;48.972;12.794;2023-05-10T02:20:26;5.18;;;4.68;;
27758;SDS011;15148;48.972;12.794;2023-05-10T02:25:28;5.97;;;4.47;;
27758;SDS011;15148;48.972;12.794;2023-05-10T02:30:33;6.75;;;5.07;;
27758;SDS011;15148;48.972;12.794;2023-05-10T02:35:36;6.25;;;4.95;;
27758;SDS011;15148;48.972;12.794;2023-05-10T02:40:39;7.38;;;4.70;;
27758;SDS011;15148;48.972;12.794;2023-05-10T02:45:42;6.53;;;4.90;;
27758;SDS011;15148;48.972;12.794;2023-05-10T02:50:46;7.43;;;4.65;;
27758;SDS011;15148;48.972;12.794;2023-05-10T02:55:52;6.35;;;4.80;;
27758;SDS011;15148;48.972;12.794;2023-05-10T03:01:00;7.67;;;5.17;;
27758;SDS011;15148;48.972;12.794;2023-05-10T03:06:02;5.55;;;5.00;;
27758;SDS011;15148;48.972;12.794;2023-05-10T03:11:16;5.68;;;4.93;;
27758;SDS011;15148;48.972;12.794;2023-05-10T03:16:27;6.38;;;4.80;;
27758;SDS011;15148;48.972;12.794;2023-05-10T03:21:34;5.03;;;4.50;;
27758;SDS011;15148;48.972;12.794;2023-05-10T03:26:40;5.20;;;4.70;;
27758;SDS011;15148;48.972;12.794;2023-05-10T03:31:49;5.05;;;4.60;;
27758;SDS011;15148;48.972;12.794;2023-05-10T03:36:52;6.30;;;4.55;;
27758;SDS011;15148;48.972;12.794;2023-05-10T03:41:54;5.78;;;5.18;;
27758;SDS011;15148;48.972;12.794;2023-05-10T03:46:56;8.18;;;7.22;;
27758;SDS011;15148;48.972;12.794;2023-05-10T03:51:58;7.45;;;6.10;;
27758;SDS011;15148;48.972;12.794;2023-05-10T03:57:01;6.00;;;5.38;;
27758;SDS011;15148;48.972;12.794;2023-05-10T04:02:04;6.32;;;5.72;;
27758;SDS011;15148;48.972;12.794;2023-05-10T04:07:06;6.43;;;5.50;;
27758;SDS011;15148;48.972;12.794;2023-05-10T04:12:08;6.63;;;5.30;;
27758;SDS011;15148;48.972;12.794;2023-05-10T04:17:11;6.90;;;5.65;;
27758;SDS011;15148;48.972;12.794;2023-05-10T04:22:13;5.60;;;5.10;;
27758;SDS011;15148;48.972;12.794;2023-05-10T04:27:15;7.15;;;5.25;;
27758;SDS011;15148;48.972;12.794;2023-05-10T04:32:16;7.15;;;4.82;;
27758;SDS011;15148;48.972;12.794;2023-05-10T04:37:18;5.90;;;4.95;;
27758;SDS011;15148;48.972;12.794;2023-05-10T04:42:22;5.45;;;4.95;;
27758;SDS011;15148;48.972;12.794;2023-05-10T04:47:24;5.88;;;5.20;;
27758;SDS011;15148;48.972;12.794;2023-05-10T04:52:26;6.18;;;5.60;;
27758;SDS011;15148;48.972;12.794;2023-05-10T04:57:27;6.57;;;5.90;;
27758;SDS011;15148;48.972;12.794;2023-05-10T05:02:29;6.50;;;5.90;;
27758;SDS011;15148;48.972;12.794;2023-05-10T05:07:32;7.88;;;6.03;;
27758;SDS011;15148;48.972;12.794;2023-05-10T05:12:34;11.98;;;9.02;;
27758;SDS011;15148;48.972;12.794;2023-05-10T05:17:36;6.97;;;6.28;;
27758;SDS011;15148;48.972;12.794;2023-05-10T05:22:38;8.07;;;7.38;;
27758;SDS011;15148;48.972;12.794;2023-05-10T05:27:41;22.23;;;19.55;;
27758;SDS011;15148;48.972;12.794;2023-05-10T05:32:43;8.27;;;7.40;;
27758;SDS011;15148;48.972;12.794;2023-05-10T05:37:45;14.73;;;12.07;;
27758;SDS011;15148;48.972;12.794;2023-05-10T05:42:48;8.80;;;8.00;;
27758;SDS011;15148;48.972;12.794;2023-05-10T05:47:50;6.95;;;6.25;;
27758;SDS011;15148;48.972;12.794;2023-05-10T05:52:52;7.22;;;6.53;;
27758;SDS011;15148;48.972;12.794;2023-05-10T05:57:54;10.20;;;7.43;;
27758;SDS011;15148;48.972;12.794;2023-05-10T06:02:55;8.15;;;6.88;;
27758;SDS011;15148;48.972;12.794;2023-05-10T06:07:59;10.82;;;8.23;;
27758;SDS011;15148;48.972;12.794;2023-05-10T06:13:02;9.35;;;8.23;;
27758;SDS011;15148;48.972;12.794;2023-05-10T06:18:04;8.65;;;7.75;;
27758;SDS011;15148;48.972;12.794;2023-05-10T06:23:06;9.32;;;7.75;;
27758;SDS011;15148;48.972;12.794;2023-05-10T06:28:08;11.60;;;9.57;;
27758;SDS011;15148;48.972;12.794;2023-05-10T06:33:10;14.43;;;9.65;;
27758;SDS011;15148;48.972;12.794;2023-05-10T06:38:12;10.85;;;9.75;;
27758;SDS011;15148;48.972;12.794;2023-05-10T06:43:14;10.10;;;9.02;;
27758;SDS011;15148;48.972;12.794;2023-05-10T06:48:16;13.68;;;12.30;;
27758;SDS011;15148;48.972;12.794;2023-05-10T06:53:18;16.13;;;12.13;;
27758;SDS011;15148;48.972;12.794;2023-05-10T06:58:20;12.13;;;10.82;;
27758;SDS011;15148;48.972;12.794;2023-05-10T07:03:22;12.02;;;8.80;;
27758;SDS011;15148;48.972;12.794;2023-05-10T07:08:24;10.10;;;9.10;;
27758;SDS011;15148;48.972;12.794;2023-05-10T07:13:26;11.30;;;9.82;;
27758;SDS011;15148;48.972;12.794;2023-05-10T07:18:28;10.63;;;9.48;;
27758;SDS011;15148;48.972;12.794;2023-05-10T07:23:30;11.48;;;10.27;;
27758;SDS011;15148;48.972;12.794;2023-05-10T07:28:32;11.68;;;10.48;;
27758;SDS011;15148;48.972;12.794;2023-05-10T07:33:34;9.13;;;8.27;;
27758;SDS011;15148;48.972;12.794;2023-05-10T07:38:36;9.75;;;8.60;;
27758;SDS011;15148;48.972;12.794;2023-05-10T07:43:41;14.35;;;11.93;;
27758;SDS011;15148;48.972;12.794;2023-05-10T07:48:42;10.07;;;9.07;;
27758;SDS011;15148;48.972;12.794;2023-05-10T07:53:44;9.57;;;8.68;;
27758;SDS011;15148;48.972;12.794;2023-05-10T07:58:46;10.85;;;9.68;;
27758;SDS011;15148;48.972;12.794;2023-05-10T08:03:48;10.85;;;9.75;;
27758;SDS011;15148;48.972;12.794;2023-05-10T08:08:52;10.90;;;9.85;;
27758;SDS011;15148;48.972;12.794;2023-05-10T08:13:55;10.38;;;9.38;;
27758;SDS011;15148;48.972;12.794;2023-05-10T08:18:57;11.10;;;9.80;;
27758;SDS011;15148;48.972;12.794;2023-05-10T08:23:58;11.02;;;9.50;;
27758;SDS011;15148;48.972;12.794;2023-05-10T08:29:00;12.10;;;10.73;;
27758;SDS011;15148;48.972;12.794;2023-05-10T08:34:02;12.45;;;10.77;;
27758;SDS011;15148;48.972;12.794;2023-05-10T08:39:04;11.93;;;10.73;;
27758;SDS011;15148;48.972;12.794;2023-05-10T08:44:16;13.88;;;12.18;;
27758;SDS011;15148;48.972;12.794;2023-05-10T08:49:19;13.60;;;12.25;;
27758;SDS011;15148;48.972;12.794;2023-05-10T08:54:22;11.90;;;10.70;;
27758;SDS011;15148;48.972;12.794;2023-05-10T08:59:25;11.48;;;9.93;;
27758;SDS011;15148;48.972;12.794;2023-05-10T09:04:27;12.45;;;11.10;;
27758;SDS011;15148;48.972;12.794;2023-05-10T09:09:31;12.60;;;11.40;;
27758;SDS011;15148;48.972;12.794;2023-05-10T09:14:33;11.77;;;9.90;;
27758;SDS011;15148;48.972;12.794;2023-05-10T09:19:36;13.00;;;11.70;;
27758;SDS011;15148;48.972;12.794;2023-05-10T09:24:39;13.43;;;12.02;;
27758;SDS011;15148;48.972;12.794;2023-05-10T09:29:46;13.15;;;11.85;;
27758;SDS011;15148;48.972;12.794;2023-05-10T09:34:47;11.45;;;10.35;;
27758;SDS011;15148;48.972;12.794;2023-05-10T09:39:51;11.70;;;10.60;;
27758;SDS011;15148;48.972;12.794;2023-05-10T09:45:00;11.35;;;10.30;;
27758;SDS011;15148;48.972;12.794;2023-05-10T09:50:05;11.60;;;10.40;;
27758;SDS011;15148;48.972;12.794;2023-05-10T09:55:07;10.32;;;9.40;;
27758;SDS011;15148;48.972;12.794;2023-05-10T10:00:09;11.05;;;9.95;;
27758;SDS011;15148;48.972;12.794;2023-05-10T10:05:14;9.23;;;8.32;;
27758;SDS011;15148;48.972;12.794;2023-05-10T10:10:17;11.38;;;9.90;;
27758;SDS011;15148;48.972;12.794;2023-05-10T10:15:20;10.98;;;9.98;;
27758;SDS011;15148;48.972;12.794;2023-05-10T10:20:23;10.13;;;9.13;;
27758;SDS011;15148;48.972;12.794;2023-05-10T10:25:26;11.95;;;10.85;;
27758;SDS011;15148;48.972;12.794;2023-05-10T10:35:48;10.95;;;9.95;;
27758;SDS011;15148;48.972;12.794;2023-05-10T10:41:06;10.05;;;9.15;;
27758;SDS011;15148;48.972;12.794;2023-05-10T10:46:14;11.52;;;10.32;;
27758;SDS011;15148;48.972;12.794;2023-05-10T10:51:18;9.57;;;8.57;;
27758;SDS011;15148;48.972;12.794;2023-05-10T10:56:21;8.52;;;7.72;;
27758;SDS011;15148;48.972;12.794;2023-05-10T11:01:24;8.38;;;7.57;;
27758;SDS011;15148;48.972;12.794;2023-05-10T11:06:35;10.18;;;7.88;;
27758;SDS011;15148;48.972;12.794;2023-05-10T11:11:58;5.07;;;4.57;;
27758;SDS011;15148;48.972;12.794;2023-05-10T11:17:01;4.38;;;3.80;;
27758;SDS011;15148;48.972;12.794;2023-05-10T11:27:05;5.65;;;5.15;;
27758;SDS011;15148;48.972;12.794;2023-05-10T11:32:07;2.67;;;2.38;;
27758;SDS011;15148;48.972;12.794;2023-05-10T11:37:09;2.63;;;2.03;;
27758;SDS011;15148;48.972;12.794;2023-05-10T11:42:11;2.17;;;1.92;;
27758;SDS011;15148;48.972;12.794;2023-05-10T11:47:13;2.15;;;1.95;;
27758;SDS011;15148;48.972;12.794;2023-05-10T11:52:15;2.22;;;2.10;;
27758;SDS011;15148;48.972;12.794;2023-05-10T11:57:20;3.10;;;1.60;;
27758;SDS011;15148;48.972;12.794;2023-05-10T12:02:28;2.13;;;2.03;;
27758;SDS011;15148;48.972;12.794;2023-05-10T12:07:31;1.65;;;1.55;;
27758;SDS011;15148;48.972;12.794;2023-05-10T12:17:43;1.70;;;1.60;;
27758;SDS011;15148;48.972;12.794;2023-05-10T12:22:47;3.33;;;2.10;;
27758;SDS011;15148;48.972;12.794;2023-05-10T12:27:55;2.23;;;2.07;;
27758;SDS011;15148;48.972;12.794;2023-05-10T12:33:10;2.75;;;1.90;;
27758;SDS011;15148;48.972;12.794;2023-05-10T12:38:26;2.88;;;2.53;;
27758;SDS011;15148;48.972;12.794;2023-05-10T12:43:31;2.53;;;2.33;;
27758;SDS011;15148;48.972;12.794;2023-05-10T12:48:34;2.78;;;2.38;;
27758;SDS011;15148;48.972;12.794;2023-05-10T12:53:36;2.03;;;1.92;;
27758;SDS011;15148;48.972;12.794;2023-05-10T12:58:40;2.85;;;2.00;;
27758;SDS011;15148;48.972;12.794;2023-05-10T13:03:42;2.28;;;2.08;;
27758;SDS011;15148;48.972;12.794;2023-05-10T13:08:44;1.83;;;1.73;;
27758;SDS011;15148;48.972;12.794;2023-05-10T13:13:46;1.52;;;1.42;;
27758;SDS011;15148;48.972;12.794;2023-05-10T13:18:48;1.90;;;1.65;;
27758;SDS011;15148;48.972;12.794;2023-05-10T13:23:50;1.42;;;1.33;;
27758;SDS011;15148;48.972;12.794;2023-05-10T13:28:52;1.70;;;1.60;;
27758;SDS011;15148;48.972;12.794;2023-05-10T13:33:54;3.05;;;1.70;;
27758;SDS011;15148;48.972;12.794;2023-05-10T13:38:56;1.67;;;1.10;;
27758;SDS011;15148;48.972;12.794;2023-05-10T13:43:58;1.45;;;1.35;;
27758;SDS011;15148;48.972;12.794;2023-05-10T13:49:00;2.30;;;1.70;;
27758;SDS011;15148;48.972;12.794;2023-05-10T13:54:02;1.40;;;1.30;;
27758;SDS011;15148;48.972;12.794;2023-05-10T13:59:04;1.58;;;1.30;;
27758;SDS011;15148;48.972;12.794;2023-05-10T14:04:09;1.73;;;1.30;;
27758;SDS011;15148;48.972;12.794;2023-05-10T14:09:11;3.67;;;1.58;;
27758;SDS011;15148;48.972;12.794;2023-05-10T14:14:14;1.95;;;1.80;;
27758;SDS011;15148;48.972;12.794;2023-05-10T14:19:15;1.70;;;1.60;;
27758;SDS011;15148;48.972;12.794;2023-05-10T14:24:17;2.50;;;1.98;;
27758;SDS011;15148;48.972;12.794;2023-05-10T14:29:20;3.38;;;2.00;;
27758;SDS011;15148;48.972;12.794;2023-05-10T14:34:24;2.45;;;1.80;;
27758;SDS011;15148;48.972;12.794;2023-05-10T14:39:26;2.22;;;2.03;;
27758;SDS011;15148;48.972;12.794;2023-05-10T14:44:30;1.80;;;1.55;;
27758;SDS011;15148;48.972;12.794;2023-05-10T14:49:32;2.08;;;1.77;;
27758;SDS011;15148;48.972;12.794;2023-05-10T14:54:34;1.67;;;1.58;;
27758;SDS011;15148;48.972;12.794;2023-05-10T14:59:36;1.77;;;1.38;;
27758;SDS011;15148;48.972;12.794;2023-05-10T15:04:38;4.72;;;1.75;;
27758;SDS011;15148;48.972;12.794;2023-05-10T15:09:40;2.28;;;1.90;;
27758;SDS011;15148;48.972;12.794;2023-05-10T15:14:42;1.80;;;1.70;;
27758;SDS011;15148;48.972;12.794;2023-05-10T15:19:44;2.35;;;2.15;;
27758;SDS011;15148;48.972;12.794;2023-05-10T15:24:46;3.83;;;2.25;;
27758;SDS011;15148;48.972;12.794;2023-05-10T15:29:48;2.47;;;2.28;;
27758;SDS011;15148;48.972;12.794;2023-05-10T15:34:50;2.28;;;1.90;;
27758;SDS011;15148;48.972;12.794;2023-05-10T15:39:52;2.35;;;2.15;;
27758;SDS011;15148;48.972;12.794;2023-05-10T15:44:57;2.63;;;2.42;;
27758;SDS011;15148;48.972;12.794;2023-05-10T15:49:59;2.60;;;2.40;;
27758;SDS011;15148;48.972;12.794;2023-05-10T15:55:01;2.70;;;2.50;;
27758;SDS011;15148;48.972;12.794;2023-05-10T16:00:04;2.35;;;2.15;;
27758;SDS011;15148;48.972;12.794;2023-05-10T16:05:12;4.38;;;3.20;;
27758;SDS011;15148;48.972;12.794;2023-05-10T16:10:14;3.72;;;3.22;;
27758;SDS011;15148;48.972;12.794;2023-05-10T16:15:16;6.35;;;3.85;;
27758;SDS011;15148;48.972;12.794;2023-05-10T16:20:19;4.45;;;3.58;;
27758;SDS011;15148;48.972;12.794;2023-05-10T16:25:21;4.75;;;3.95;;
27758;SDS011;15148;48.972;12.794;2023-05-10T16:30:23;3.97;;;3.67;;
27758;SDS011;15148;48.972;12.794;2023-05-10T16:35:27;4.65;;;4.25;;
27758;SDS011;15148;48.972;12.794;2023-05-10T16:40:30;5.10;;;4.57;;
27758;SDS011;15148;48.972;12.794;2023-05-10T16:45:33;5.22;;;4.65;;
27758;SDS011;15148;48.972;12.794;2023-05-10T16:50:35;4.63;;;4.10;;
27758;SDS011;15148;48.972;12.794;2023-05-10T16:55:37;4.28;;;3.83;;
27758;SDS011;15148;48.972;12.794;2023-05-10T17:00:38;3.45;;;3.15;;
27758;SDS011;15148;48.972;12.794;2023-05-10T17:05:40;4.03;;;3.63;;
27758;SDS011;15148;48.972;12.794;2023-05-10T17:10:43;5.20;;;3.60;;
27758;SDS011;15148;48.972;12.794;2023-05-10T17:15:45;7.43;;;3.60;;
27758;SDS011;15148;48.972;12.794;2023-05-10T17:20:50;5.07;;;3.10;;
27758;SDS011;15148;48.972;12.794;2023-05-10T17:25:52;4.15;;;3.22;;
27758;SDS011;15148;48.972;12.794;2023-05-10T17:30:55;3.65;;;3.35;;
27758;SDS011;15148;48.972;12.794;2023-05-10T17:35:58;5.03;;;4.07;;
27758;SDS011;15148;48.972;12.794;2023-05-10T17:41:00;4.53;;;4.10;;
27758;SDS011;15148;48.972;12.794;2023-05-10T17:46:01;5.72;;;4.72;;
27758;SDS011;15148;48.972;12.794;2023-05-10T17:51:04;4.68;;;4.18;;
27758;SDS011;15148;48.972;12.794;2023-05-10T17:56:06;9.60;;;4.63;;
27758;SDS011;15148;48.972;12.794;2023-05-10T18:01:08;7.20;;;4.32;;
27758;SDS011;15148;48.972;12.794;2023-05-10T18:06:10;3.97;;;3.20;;
27758;SDS011;15148;48.972;12.794;2023-05-10T18:11:12;6.10;;;3.67;;
27758;SDS011;15148;48.972;12.794;2023-05-10T18:16:14;3.20;;;2.95;;
27758;SDS011;15148;48.972;12.794;2023-05-10T18:21:16;4.53;;;3.42;;
27758;SDS011;15148;48.972;12.794;2023-05-10T18:26:18;6.80;;;3.45;;
27758;SDS011;15148;48.972;12.794;2023-05-10T18:31:20;3.70;;;3.05;;
27758;SDS011;15148;48.972;12.794;2023-05-10T18:36:22;3.17;;;2.97;;
27758;SDS011;15148;48.972;12.794;2023-05-10T18:41:24;4.32;;;3.92;;
27758;SDS011;15148;48.972;12.794;2023-05-10T18:46:28;9.68;;;8.88;;
27758;SDS011;15148;48.972;12.794;2023-05-10T18:51:30;3.55;;;3.22;;
27758;SDS011;15148;48.972;12.794;2023-05-10T18:56:32;12.32;;;8.25;;
27758;SDS011;15148;48.972;12.794;2023-05-10T19:01:34;9.38;;;4.78;;
27758;SDS011;15148;48.972;12.794;2023-05-10T19:06:36;13.23;;;9.68;;
27758;SDS011;15148;48.972;12.794;2023-05-10T19:11:38;5.32;;;4.40;;
27758;SDS011;15148;48.972;12.794;2023-05-10T19:16:40;21.58;;;15.50;;
27758;SDS011;15148;48.972;12.794;2023-05-10T19:21:43;14.15;;;11.48;;
27758;SDS011;15148;48.972;12.794;2023-05-10T19:26:47;21.00;;;17.15;;
27758;SDS011;15148;48.972;12.794;2023-05-10T19:31:49;6.53;;;5.60;;
27758;SDS011;15148;48.972;12.794;2023-05-10T19:36:52;11.43;;;10.32;;
27758;SDS011;15148;48.972;12.794;2023-05-10T19:41:54;14.35;;;10.65;;
27758;SDS011;15148;48.972;12.794;2023-05-10T19:46:56;5.50;;;4.90;;
27758;SDS011;15148;48.972;12.794;2023-05-10T19:51:59;7.45;;;6.68;;
27758;SDS011;15148;48.972;12.794;2023-05-10T19:57:01;18.73;;;14.60;;
27758;SDS011;15148;48.972;12.794;2023-05-10T20:02:02;83.68;;;55.45;;
27758;SDS011;15148;48.972;12.794;2023-05-10T20:07:04;23.15;;;18.02;;
27758;SDS011;15148;48.972;12.794;2023-05-10T20:12:06;23.25;;;16.70;;
27758;SDS011;15148;48.972;12.794;2023-05-10T20:17:08;28.77;;;19.30;;
27758;SDS011;15148;48.972;12.794;2023-05-10T20:22:10;70.90;;;43.05;;
27758;SDS011;15148;48.972;12.794;2023-05-10T20:27:11;90.15;;;59.55;;
27758;SDS011;15148;48.972;12.794;2023-05-10T20:32:13;9.68;;;8.73;;
27758;SDS011;15148;48.972;12.794;2023-05-10T20:37:15;8.77;;;7.00;;
27758;SDS011;15148;48.972;12.794;2023-05-10T20:42:18;6.35;;;5.70;;
27758;SDS011;15148;48.972;12.794;2023-05-10T20:47:20;6.10;;;5.50;;
27758;SDS011;15148;48.972;12.794;2023-05-10T20:52:23;5.60;;;5.10;;
27758;SDS011;15148;48.972;12.794;2023-05-10T20:57:25;6.85;;;6.07;;
27758;SDS011;15148;48.972;12.794;2023-05-10T21:02:27;5.90;;;5.40;;
27758;SDS011;15148;48.972;12.794;2023-05-10T21:07:29;8.73;;;5.90;;
27758;SDS011;15148;48.972;12.794;2023-05-10T21:12:33;6.57;;;5.97;;
27758;SDS011;15148;48.972;12.794;2023-05-10T21:17:34;8.65;;;7.22;;
27758;SDS011;15148;48.972;12.794;2023-05-10T21:22:37;7.00;;;6.40;;
27758;SDS011;15148;48.972;12.794;2023-05-10T21:27:38;8.60;;;7.90;;
27758;SDS011;15148;48.972;12.794;2023-05-10T21:32:41;7.70;;;6.97;;
27758;SDS011;15148;48.972;12.794;2023-05-10T21:37:43;9.18;;;8.27;;
27758;SDS011;15148;48.972;12.794;2023-05-10T21:42:45;28.73;;;18.58;;
27758;SDS011;15148;48.972;12.794;2023-05-10T21:47:49;7.15;;;6.10;;
27758;SDS011;15148;48.972;12.794;2023-05-10T21:52:51;8.27;;;7.30;;
27758;SDS011;15148;48.972;12.794;2023-05-10T21:57:53;8.60;;;6.45;;
27758;SDS011;15148;48.972;12.794;2023-05-10T22:02:55;7.07;;;6.47;;
27758;SDS011;15148;48.972;12.794;2023-05-10T22:07:57;7.20;;;6.55;;
27758;SDS011;15148;48.972;12.794;2023-05-10T22:12:59;5.03;;;4.63;;
27758;SDS011;15148;48.972;12.794;2023-05-10T22:18:01;6.15;;;5.55;;
27758;SDS011;15148;48.972;12.794;2023-05-10T22:23:03;5.25;;;4.75;;
27758;SDS011;15148;48.972;12.794;2023-05-10T22:28:05;4.32;;;3.92;;
27758;SDS011;15148;48.972;12.794;2023-05-10T22:33:07;4.40;;;4.00;;
27758;SDS011;15148;48.972;12.794;2023-05-10T22:38:09;4.07;;;3.78;;
27758;SDS011;15148;48.972;12.794;2023-05-10T22:43:11;5.32;;;3.50;;
27758;SDS011;15148;48.972;12.794;2023-05-10T22:48:13;3.78;;;3.28;;
27758;SDS011;15148;48.972;12.794;2023-05-10T22:53:16;4.32;;;3.10;;
27758;SDS011;15148;48.972;12.794;2023-05-10T22:58:18;3.10;;;2.90;;
27758;SDS011;15148;48.972;12.794;2023-05-10T23:03:20;4.03;;;3.60;;
27758;SDS011;15148;48.972;12.794;2023-05-10T23:08:22;3.63;;;2.78;;
27758;SDS011;15148;48.972;12.794;2023-05-10T23:13:23;3.58;;;3.22;;
27758;SDS011;15148;48.972;12.794;2023-05-10T23:18:25;3.15;;;2.95;;
27758;SDS011;15148;48.972;12.794;2023-05-10T23:23:30;3.55;;;3.13;;
27758;SDS011;15148;48.972;12.794;2023-05-10T23:28:34;4.25;;;3.95;;
27758;SDS011;15148;48.972;12.794;2023-05-10T23:33:36;3.38;;;3.15;;
27758;SDS011;15148;48.972;12.794;2023-05-10T23:38:37;3.22;;;2.90;;
27758;SDS011;15148;48.972;12.794;2023-05-10T23:43:39;3.50;;;3.20;;
27758;SDS011;15148;48.972;12.794;2023-05-10T23:48:41;3.90;;;3.60;;
27758;SDS011;15148;48.972;12.794;2023-05-10T23:53:43;5.18;;;3.50;;
27758;SDS011;15148;48.972;12.794;2023-05-10T23:58:45;5.38;;;3.75;;
